createdAt,value
2023-01-24T00:02:34.000Z,38.57
2023-01-24T00:07:35.000Z,38.44
2023-01-24T00:12:35.000Z,38.83
2023-01-24T00:17:35.000Z,39.34
2023-01-24T00:22:35.000Z,38.5
2023-01-24T00:27:35.000Z,38.43
2023-01-24T00:32:34.000Z,38.06
2023-01-24T00:37:34.000Z,36.73
2023-01-24T00:42:35.000Z,36.65
2023-01-24T00:47:35.000Z,35.65
2023-01-24T00:57:35.000Z,35.57
2023-01-24T01:02:35.000Z,35.43
2023-01-24T01:07:35.000Z,36.67
2023-01-24T01:12:35.000Z,35.41
2023-01-24T01:17:34.000Z,35.63
2023-01-24T01:22:35.000Z,35.47
2023-01-24T01:27:35.000Z,36.05
2023-01-24T01:32:35.000Z,36.16
2023-01-24T01:37:34.000Z,35.93
2023-01-24T01:42:35.000Z,36.82
2023-01-24T01:47:34.000Z,35.37
2023-01-24T01:52:35.000Z,35.37
2023-01-24T01:57:34.000Z,35.04
2023-01-24T02:02:34.000Z,35.17
2023-01-24T02:07:35.000Z,35.38
2023-01-24T02:12:35.000Z,34.99
2023-01-24T02:17:34.000Z,33.95
2023-01-24T02:22:35.000Z,34.73
2023-01-24T02:32:35.000Z,33.56
2023-01-24T02:37:35.000Z,33.56
2023-01-24T02:42:35.000Z,32.32
2023-01-24T02:47:35.000Z,32.47
2023-01-24T02:52:34.000Z,32.44
2023-01-24T02:57:35.000Z,33.04
2023-01-24T03:02:34.000Z,33.03
2023-01-24T03:07:34.000Z,32.76
2023-01-24T03:12:35.000Z,33.63
2023-01-24T03:17:35.000Z,33.44
2023-01-24T03:22:35.000Z,34.14
2023-01-24T03:27:35.000Z,34.61
2023-01-24T03:32:35.000Z,34.01
2023-01-24T03:37:34.000Z,33.34
2023-01-24T03:42:34.000Z,33.7
2023-01-24T03:47:35.000Z,33.57
2023-01-24T03:52:35.000Z,33.57
2023-01-24T03:57:35.000Z,34.38
2023-01-24T04:07:37.000Z,33.7
2023-01-24T04:12:35.000Z,33.5
2023-01-24T04:17:34.000Z,34.72
2023-01-24T04:22:35.000Z,33.53
2023-01-24T04:27:34.000Z,32.51
2023-01-24T04:32:35.000Z,31.37
2023-01-24T04:37:35.000Z,32.11
2023-01-24T04:42:35.000Z,32.61
2023-01-24T04:47:35.000Z,32.32
2023-01-24T04:52:35.000Z,32.24
2023-01-24T04:57:35.000Z,32.24
2023-01-24T05:02:35.000Z,32.72
2023-01-24T05:07:35.000Z,32.71
2023-01-24T05:12:35.000Z,34.07
2023-01-24T05:17:35.000Z,32.91
2023-01-24T05:22:35.000Z,31.35
2023-01-24T05:27:34.000Z,32.19
2023-01-24T05:32:35.000Z,32.07
2023-01-24T05:37:34.000Z,31.9
2023-01-24T05:42:35.000Z,32.11
2023-01-24T05:47:34.000Z,32.33
2023-01-24T05:52:35.000Z,31.67
2023-01-24T05:57:35.000Z,33.03
2023-01-24T06:02:35.000Z,31.83
2023-01-24T06:07:35.000Z,31.83
2023-01-24T06:12:35.000Z,32.06
2023-01-24T06:17:34.000Z,30.68
2023-01-24T06:22:35.000Z,33.64
2023-01-24T06:27:34.000Z,32.72
2023-01-24T06:32:35.000Z,31.7
2023-01-24T06:37:34.000Z,31.51
2023-01-24T06:42:36.000Z,31.3
2023-01-24T06:47:35.000Z,33.79
2023-01-24T06:52:34.000Z,34.35
2023-01-24T06:57:35.000Z,33.5
2023-01-24T07:02:34.000Z,33.7
2023-01-24T07:07:35.000Z,32.24
2023-01-24T07:12:35.000Z,31.17
2023-01-24T07:17:34.000Z,31.22
2023-01-24T07:22:35.000Z,30.57
2023-01-24T07:27:34.000Z,31.62
2023-01-24T07:32:35.000Z,31.78
2023-01-24T07:37:35.000Z,31.49
2023-01-24T07:42:34.000Z,30.37
2023-01-24T07:47:35.000Z,31.86
2023-01-24T07:52:35.000Z,31.19
2023-01-24T07:57:34.000Z,31.18
2023-01-24T08:02:35.000Z,31.56
2023-01-24T08:07:34.000Z,30.19
2023-01-24T08:12:34.000Z,30.19
2023-01-24T08:17:34.000Z,29.96
2023-01-24T08:22:35.000Z,28.63
2023-01-24T08:27:35.000Z,29.01
2023-01-24T08:32:35.000Z,32.14
2023-01-24T08:37:35.000Z,28.84
2023-01-24T08:42:36.000Z,28.21
2023-01-24T08:47:37.000Z,28.24
2023-01-24T08:52:35.000Z,28.27
2023-01-24T08:57:34.000Z,27.41
2023-01-24T09:02:35.000Z,26.94
2023-01-24T09:07:34.000Z,27.19
2023-01-24T09:12:35.000Z,27.91
2023-01-24T09:17:35.000Z,27.45
2023-01-24T09:22:35.000Z,25.76
2023-01-24T09:27:35.000Z,25.76
2023-01-24T09:32:34.000Z,24.88
2023-01-24T09:37:35.000Z,23.86
2023-01-24T09:42:35.000Z,24.27
2023-01-24T09:47:35.000Z,24.58
2023-01-24T09:52:35.000Z,22.8
2023-01-24T09:57:35.000Z,24.6
2023-01-24T10:07:35.000Z,25.7
2023-01-24T10:12:35.000Z,26.81
2023-01-24T10:17:34.000Z,26.93
2023-01-24T10:22:35.000Z,28.57
2023-01-24T10:27:35.000Z,31.21
2023-01-24T10:32:35.000Z,29.6
2023-01-24T10:37:35.000Z,31.21
2023-01-24T10:42:35.000Z,29.07
2023-01-24T10:47:35.000Z,29.07
2023-01-24T10:52:35.000Z,26.86
2023-01-24T10:57:35.000Z,26.91
2023-01-24T11:02:35.000Z,25.46
2023-01-24T11:07:35.000Z,23.7
2023-01-24T11:12:35.000Z,25.42
2023-01-24T11:17:35.000Z,27.43
2023-01-24T11:22:35.000Z,26.45
2023-01-24T11:27:34.000Z,26.59
2023-01-24T11:32:35.000Z,26.86
2023-01-24T11:37:35.000Z,25.34
2023-01-24T11:42:34.000Z,25
2023-01-24T11:47:35.000Z,25
2023-01-24T11:52:35.000Z,26.09
2023-01-24T11:57:35.000Z,25.57
2023-01-24T12:02:34.000Z,25.57
2023-01-24T12:12:34.000Z,24.19
2023-01-24T12:17:38.000Z,24.19
2023-01-24T12:22:35.000Z,24.22
2023-01-24T12:27:35.000Z,23.64
2023-01-24T12:32:35.000Z,22.46
2023-01-24T12:37:35.000Z,22.32
2023-01-24T12:42:34.000Z,22.65
2023-01-24T12:47:35.000Z,23.11
2023-01-24T12:52:35.000Z,22.81
2023-01-24T12:57:35.000Z,23.98
2023-01-24T13:02:35.000Z,26.29
2023-01-24T13:07:34.000Z,27.2
2023-01-24T13:12:35.000Z,42.08
2023-01-24T13:27:34.000Z,37.66
2023-01-24T13:32:34.000Z,25.71
2023-01-24T13:37:35.000Z,25.71
2023-01-24T13:42:35.000Z,24.39
2023-01-24T13:47:35.000Z,24.36
2023-01-24T13:52:35.000Z,26.76
2023-01-24T13:57:34.000Z,22.88
2023-01-24T14:02:35.000Z,18.75
2023-01-24T14:07:35.000Z,16.76
2023-01-24T14:12:35.000Z,18.89
2023-01-24T14:17:35.000Z,23.42
2023-01-24T14:22:34.000Z,17.59
2023-01-24T14:27:35.000Z,17.29
2023-01-24T14:32:35.000Z,15.41
2023-01-24T14:37:35.000Z,16.45
2023-01-24T14:42:35.000Z,16.46
2023-01-24T14:47:35.000Z,16.46
2023-01-24T14:52:35.000Z,16.88
2023-01-24T14:57:35.000Z,17.89
2023-01-24T15:02:35.000Z,24.49
2023-01-24T15:07:35.000Z,24.41
2023-01-24T15:12:35.000Z,20.65
2023-01-24T15:17:34.000Z,18.36
2023-01-24T15:22:35.000Z,19.27
2023-01-24T15:27:34.000Z,19.18
2023-01-24T15:32:35.000Z,22.09
2023-01-24T15:37:35.000Z,19.1
2023-01-24T15:42:35.000Z,17.93
2023-01-24T15:47:34.000Z,20.06
2023-01-24T15:52:35.000Z,19.04
2023-01-24T15:57:35.000Z,17.16
2023-01-24T16:02:35.000Z,17.16
2023-01-24T16:07:35.000Z,16.43
2023-01-24T16:12:34.000Z,16.59
2023-01-24T16:17:35.000Z,17.17
2023-01-24T16:22:35.000Z,16.2
2023-01-24T16:27:35.000Z,15.76
2023-01-24T16:32:35.000Z,14.34
2023-01-24T16:37:34.000Z,14.09
2023-01-24T16:42:35.000Z,16.69
2023-01-24T16:47:34.000Z,15.72
2023-01-24T16:52:35.000Z,16.01
2023-01-24T16:57:35.000Z,14.48
2023-01-24T17:02:35.000Z,16
2023-01-24T17:07:35.000Z,16.35
2023-01-24T17:12:35.000Z,18.99
2023-01-24T17:17:34.000Z,18.99
2023-01-24T17:22:35.000Z,18.69
2023-01-24T17:27:34.000Z,16.83
2023-01-24T17:32:35.000Z,16.02
2023-01-24T17:37:35.000Z,18.05
2023-01-24T17:42:35.000Z,18.99
2023-01-24T17:47:35.000Z,18.21
2023-01-24T17:52:34.000Z,17.51
2023-01-24T17:57:35.000Z,18.31
2023-01-24T18:02:34.000Z,19.17
2023-01-24T18:07:35.000Z,18.71
2023-01-24T18:12:35.000Z,20.19
2023-01-24T18:17:35.000Z,20.04
2023-01-24T18:22:35.000Z,19.59
2023-01-24T18:27:35.000Z,19.59
2023-01-24T18:32:35.000Z,20.21
2023-01-24T18:37:35.000Z,20.37
2023-01-24T18:42:35.000Z,22.64
2023-01-24T18:47:35.000Z,22.07
2023-01-24T18:52:34.000Z,21.36
2023-01-24T18:57:35.000Z,21.79
2023-01-24T19:02:35.000Z,21.57
2023-01-24T19:07:34.000Z,21.74
2023-01-24T19:12:35.000Z,20.1
2023-01-24T19:17:35.000Z,21.36
2023-01-24T19:22:35.000Z,21.08
2023-01-24T19:32:35.000Z,20.67
2023-01-24T19:37:34.000Z,21.41
2023-01-24T19:42:35.000Z,20.39
2023-01-24T19:47:34.000Z,20.39
2023-01-24T19:52:35.000Z,21.18
2023-01-24T19:57:34.000Z,20.73
2023-01-24T20:02:35.000Z,21
2023-01-24T20:07:34.000Z,20.99
2023-01-24T20:12:34.000Z,22.16
2023-01-24T20:17:35.000Z,24.47
2023-01-24T20:22:35.000Z,23.05
2023-01-24T20:27:34.000Z,23.77
2023-01-24T20:32:45.000Z,22.67
2023-01-24T20:37:34.000Z,21.75
2023-01-24T20:42:35.000Z,21.59
2023-01-24T20:47:35.000Z,21.62
2023-01-24T20:52:34.000Z,21.48
2023-01-24T20:57:35.000Z,22.43
2023-01-24T21:02:35.000Z,22.43
2023-01-24T21:07:35.000Z,22.19
2023-01-24T21:12:35.000Z,22.5
2023-01-24T21:17:34.000Z,22.39
2023-01-24T21:22:34.000Z,23.27
2023-01-24T21:27:34.000Z,23.12
2023-01-24T21:32:35.000Z,22.75
2023-01-24T21:37:38.000Z,17.72
2023-01-24T21:42:35.000Z,16.86
2023-01-24T21:47:34.000Z,15.7
2023-01-24T21:52:34.000Z,15.09
2023-01-24T21:57:42.000Z,14.56
2023-01-24T22:02:34.000Z,14.02
2023-01-24T22:07:35.000Z,14.13
2023-01-24T22:12:35.000Z,13.77
2023-01-24T22:17:35.000Z,13.77
2023-01-24T22:22:34.000Z,14.08
2023-01-24T22:27:35.000Z,14.68
2023-01-24T22:32:35.000Z,13.76
2023-01-24T22:37:35.000Z,13.56
2023-01-24T22:42:34.000Z,13.43
2023-01-24T22:47:34.000Z,13.51
2023-01-24T22:52:35.000Z,14.16
2023-01-24T22:57:34.000Z,14.21
2023-01-24T23:02:35.000Z,13.76
2023-01-24T23:07:34.000Z,13.43
2023-01-24T23:12:35.000Z,13.92
2023-01-24T23:17:35.000Z,13.23
2023-01-24T23:22:35.000Z,13.26
2023-01-24T23:27:35.000Z,13.26
2023-01-24T23:32:35.000Z,13.23
2023-01-24T23:37:35.000Z,13.74
2023-01-24T23:42:34.000Z,13.02
2023-01-24T23:47:35.000Z,14.13
2023-01-24T23:52:34.000Z,13.47
2023-01-24T23:57:35.000Z,13.74
